createdAt,value
2023-05-10T00:02:07.914Z,100546.25
2023-05-10T00:04:34.298Z,100549.28
2023-05-10T00:07:00.611Z,100546.25
2023-05-10T00:09:26.989Z,100549.75
2023-05-10T00:11:53.335Z,100557.78
2023-05-10T00:14:19.638Z,100554.44
2023-05-10T00:16:45.989Z,100557.94
2023-05-10T00:19:12.358Z,100559.63
2023-05-10T00:21:38.679Z,100559.63
2023-05-10T00:24:04.988Z,100552.47
2023-05-10T00:26:31.293Z,100552.94
2023-05-10T00:28:57.596Z,100554.44
2023-05-10T00:31:24.000Z,100551.88
2023-05-10T00:33:50.419Z,100547.78
2023-05-10T00:36:16.738Z,100548.38
2023-05-10T00:38:43.093Z,100555.38
2023-05-10T00:41:09.636Z,100562.34
2023-05-10T00:43:35.953Z,100563.09
2023-05-10T00:46:02.344Z,100568.25
2023-05-10T00:48:28.734Z,100562.03
2023-05-10T00:50:55.104Z,100569.47
2023-05-10T00:53:21.429Z,100569.47
2023-05-10T00:55:47.778Z,100571.91
2023-05-10T00:58:14.132Z,100567.22
2023-05-10T01:00:40.449Z,100571.44
2023-05-10T01:03:06.870Z,100572.69
2023-05-10T01:05:33.352Z,100574.94
2023-05-10T01:07:59.667Z,100571.59
2023-05-10T01:10:26.042Z,100576.78
2023-05-10T01:12:52.383Z,100572.50
2023-05-10T01:15:18.691Z,100577.53
2023-05-10T01:17:45.054Z,100570.25
2023-05-10T01:20:11.381Z,100565.84
2023-05-10T01:22:37.744Z,100563.88
2023-05-10T01:25:04.094Z,100565.09
2023-05-10T01:27:30.441Z,100572.06
2023-05-10T01:30:13.630Z,100576.00
2023-05-10T01:32:40.943Z,100580.38
2023-05-10T01:35:07.301Z,100585.53
2023-05-10T01:37:33.664Z,100580.38
2023-05-10T01:40:00.035Z,100577.22
2023-05-10T01:42:26.401Z,100577.53
2023-05-10T01:44:52.720Z,100579.78
2023-05-10T01:47:19.026Z,100577.53
2023-05-10T01:49:45.349Z,100585.09
2023-05-10T01:52:11.661Z,100579.94
2023-05-10T01:54:38.006Z,100581.16
2023-05-10T01:57:04.296Z,100580.09
2023-05-10T01:59:30.642Z,100584.06
2023-05-10T02:01:56.951Z,100580.38
2023-05-10T02:04:23.294Z,100595.44
2023-05-10T02:06:49.646Z,100588.25
2023-05-10T02:09:16.029Z,100585.84
2023-05-10T02:11:42.330Z,100587.81
2023-05-10T02:14:08.670Z,100589.78
2023-05-10T02:16:35.036Z,100593.00
2023-05-10T02:19:01.423Z,100591.00
2023-05-10T02:21:27.852Z,100583.44
2023-05-10T02:23:54.206Z,100580.81
2023-05-10T02:26:20.542Z,100583.28
2023-05-10T02:28:46.903Z,100587.81
2023-05-10T02:31:13.264Z,100583.28
2023-05-10T02:33:39.736Z,100589.94
2023-05-10T02:36:06.040Z,100583.13
2023-05-10T02:38:32.387Z,100584.47
2023-05-10T02:40:58.705Z,100589.78
2023-05-10T02:43:25.054Z,100585.53
2023-05-10T02:45:51.414Z,100580.53
2023-05-10T02:48:17.799Z,100586.28
2023-05-10T02:50:44.121Z,100582.34
2023-05-10T02:53:10.512Z,100573.09
2023-05-10T02:55:36.888Z,100570.81
2023-05-10T02:58:03.288Z,100569.63
2023-05-10T03:00:29.612Z,100566.13
2023-05-10T03:02:55.997Z,100563.09
2023-05-10T03:05:22.443Z,100562.34
2023-05-10T03:07:48.789Z,100561.56
2023-05-10T03:10:15.400Z,100570.53
2023-05-10T03:12:42.014Z,100567.03
2023-05-10T03:15:08.457Z,100573.88
2023-05-10T03:17:34.839Z,100570.81
2023-05-10T03:20:01.202Z,100569.75
2023-05-10T03:22:27.565Z,100572.03
2023-05-10T03:24:53.878Z,100580.97
2023-05-10T03:27:20.172Z,100572.94
2023-05-10T03:29:46.480Z,100574.75
2023-05-10T03:32:12.824Z,100574.75
2023-05-10T03:34:39.175Z,100569.28
2023-05-10T03:37:05.496Z,100566.13
2023-05-10T03:39:31.794Z,100573.09
2023-05-10T03:41:58.166Z,100574.03
2023-05-10T03:44:24.458Z,100573.41
2023-05-10T03:46:50.856Z,100574.47
2023-05-10T03:49:17.196Z,100580.38
2023-05-10T03:51:43.541Z,100577.97
2023-05-10T03:54:09.934Z,100577.19
2023-05-10T03:56:36.289Z,100573.69
2023-05-10T03:59:02.695Z,100572.94
2023-05-10T04:01:29.028Z,100572.66
2023-05-10T04:03:55.501Z,100569.28
2023-05-10T04:06:21.981Z,100559.13
2023-05-10T04:08:48.366Z,100552.31
2023-05-10T04:11:14.721Z,100552.00
2023-05-10T04:13:41.091Z,100567.03
2023-05-10T04:16:07.459Z,100562.47
2023-05-10T04:18:33.808Z,100562.00
2023-05-10T04:21:00.219Z,100562.34
2023-05-10T04:23:26.541Z,100564.75
2023-05-10T04:25:52.900Z,100561.72
2023-05-10T04:28:19.255Z,100560.81
2023-05-10T04:30:45.610Z,100563.09
2023-05-10T04:33:11.955Z,100553.38
2023-05-10T04:35:38.284Z,100553.25
2023-05-10T04:38:04.632Z,100559.59
2023-05-10T04:40:31.032Z,100557.78
2023-05-10T04:42:57.398Z,100550.66
2023-05-10T04:45:23.795Z,100555.63
2023-05-10T04:47:50.205Z,100548.97
2023-05-10T04:50:16.720Z,100556.41
2023-05-10T04:52:43.224Z,100548.69
2023-05-10T04:55:09.559Z,100549.59
2023-05-10T04:57:35.876Z,100552.16
2023-05-10T05:00:02.275Z,100545.63
2023-05-10T05:02:28.729Z,100539.41
2023-05-10T05:04:55.140Z,100542.00
2023-05-10T05:07:21.511Z,100546.25
2023-05-10T05:09:47.864Z,100551.09
2023-05-10T05:12:14.147Z,100561.13
2023-05-10T05:14:40.449Z,100559.00
2023-05-10T05:17:06.778Z,100548.50
2023-05-10T05:19:33.085Z,100548.50
2023-05-10T05:21:59.437Z,100558.53
2023-05-10T05:24:25.741Z,100554.13
2023-05-10T05:26:52.070Z,100557.78
2023-05-10T05:29:18.394Z,100556.88
2023-05-10T05:31:44.713Z,100561.56
2023-05-10T05:34:11.055Z,100562.34
2023-05-10T05:36:37.697Z,100565.34
2023-05-10T05:39:04.055Z,100565.97
2023-05-10T05:41:30.381Z,100568.88
2023-05-10T05:43:56.701Z,100571.44
2023-05-10T05:46:22.994Z,100567.31
2023-05-10T05:48:49.430Z,100583.41
2023-05-10T05:51:15.903Z,100567.03
2023-05-10T05:53:42.209Z,100575.22
2023-05-10T05:56:08.562Z,100574.75
2023-05-10T05:58:34.882Z,100581.75
2023-05-10T06:01:01.248Z,100584.78
2023-05-10T06:03:27.680Z,100593.72
2023-05-10T06:05:54.008Z,100592.66
2023-05-10T06:08:20.366Z,100591.47
2023-05-10T06:10:46.716Z,100594.50
2023-05-10T06:13:13.048Z,100584.03
2023-05-10T06:15:39.436Z,100590.41
2023-05-10T06:18:05.852Z,100590.56
2023-05-10T06:20:32.335Z,100585.69
2023-05-10T06:22:58.681Z,100592.06
2023-05-10T06:25:25.034Z,100591.47
2023-05-10T06:27:53.611Z,100597.38
2023-05-10T06:30:20.354Z,100598.91
2023-05-10T06:32:46.751Z,100597.53
2023-05-10T06:35:13.120Z,100604.81
2023-05-10T06:37:39.562Z,100606.31
2023-05-10T06:40:05.927Z,100605.56
2023-05-10T06:42:32.234Z,100610.72
2023-05-10T06:44:58.559Z,100604.81
2023-05-10T06:47:24.942Z,100605.28
2023-05-10T06:49:51.266Z,100610.25
2023-05-10T06:52:17.629Z,100606.31
2023-05-10T06:54:43.934Z,100610.59
2023-05-10T06:57:23.248Z,100611.03
2023-05-10T06:59:56.536Z,100612.84
2023-05-10T07:02:22.924Z,100617.09
2023-05-10T07:04:49.399Z,100620.75
2023-05-10T07:07:15.783Z,100615.28
2023-05-10T07:09:42.101Z,100616.03
2023-05-10T07:12:10.617Z,100617.41
2023-05-10T07:14:37.960Z,100622.56
2023-05-10T07:17:04.272Z,100624.69
2023-05-10T07:19:30.621Z,100630.28
2023-05-10T07:21:57.026Z,100636.50
2023-05-10T07:24:23.335Z,100631.06
2023-05-10T07:26:49.686Z,100628.94
2023-05-10T07:29:15.980Z,100624.38
2023-05-10T07:31:42.476Z,100627.13
2023-05-10T07:34:08.855Z,100626.66
2023-05-10T07:36:35.190Z,100627.56
2023-05-10T07:39:01.574Z,100621.19
2023-05-10T07:41:27.893Z,100628.78
2023-05-10T07:43:54.257Z,100629.53
2023-05-10T07:46:20.605Z,100635.00
2023-05-10T07:48:46.941Z,100629.72
2023-05-10T07:51:13.264Z,100635.75
2023-05-10T07:53:39.629Z,100634.84
2023-05-10T07:56:06.004Z,100639.72
2023-05-10T07:58:32.359Z,100637.72
2023-05-10T08:00:58.744Z,100637.28
2023-05-10T08:03:25.160Z,100631.06
2023-05-10T08:05:51.554Z,100635.31
2023-05-10T08:08:17.850Z,100630.44
2023-05-10T08:10:44.207Z,100636.06
2023-05-10T08:13:10.548Z,100648.06
2023-05-10T08:15:36.893Z,100646.69
2023-05-10T08:18:03.318Z,100647.75
2023-05-10T08:20:29.672Z,100643.66
2023-05-10T08:22:56.047Z,100637.91
2023-05-10T08:25:22.358Z,100641.38
2023-05-10T08:27:48.901Z,100655.34
2023-05-10T08:30:15.211Z,100657.59
2023-05-10T08:32:41.628Z,100658.84
2023-05-10T08:35:08.048Z,100674.00
2023-05-10T08:37:34.372Z,100662.47
2023-05-10T08:40:00.745Z,100663.81
2023-05-10T08:42:27.139Z,100671.72
2023-05-10T08:44:53.511Z,100671.59
2023-05-10T08:47:19.873Z,100682.03
2023-05-10T08:49:46.207Z,100674.31
2023-05-10T08:52:12.547Z,100687.22
2023-05-10T08:54:38.848Z,100685.25
2023-05-10T08:57:05.247Z,100694.94
2023-05-10T08:59:31.625Z,100701.91
2023-05-10T09:01:58.282Z,100700.56
2023-05-10T09:04:24.746Z,100699.25
2023-05-10T09:06:51.169Z,100706.22
2023-05-10T09:09:17.497Z,100705.59
2023-05-10T09:11:43.840Z,100708.78
2023-05-10T09:14:10.137Z,100707.13
2023-05-10T09:16:36.447Z,100714.22
2023-05-10T09:19:02.863Z,100704.38
2023-05-10T09:21:29.248Z,100716.53
2023-05-10T09:23:55.633Z,100717.28
2023-05-10T09:26:22.041Z,100715.44
2023-05-10T09:28:48.422Z,100721.25
2023-05-10T09:31:14.806Z,100724.56
2023-05-10T09:33:41.133Z,100728.97
2023-05-10T09:36:07.542Z,100733.22
2023-05-10T09:38:33.918Z,100741.88
2023-05-10T09:41:00.295Z,100738.22
2023-05-10T09:43:26.647Z,100748.72
2023-05-10T09:45:53.043Z,100745.22
2023-05-10T09:48:19.379Z,100754.63
2023-05-10T09:50:45.731Z,100753.13
2023-05-10T09:53:12.101Z,100757.06
2023-05-10T09:55:38.454Z,100747.66
2023-05-10T09:58:04.768Z,100755.53
2023-05-10T10:00:31.140Z,100756.28
2023-05-10T10:02:57.581Z,100756.28
2023-05-10T10:05:23.928Z,100761.00
2023-05-10T10:07:50.261Z,100755.97
2023-05-10T10:10:16.651Z,100763.41
2023-05-10T10:12:42.983Z,100760.34
2023-05-10T10:15:09.303Z,100763.53
2023-05-10T10:17:35.622Z,100759.50
2023-05-10T10:20:01.968Z,100758.69
2023-05-10T10:22:28.287Z,100763.84
2023-05-10T10:24:54.630Z,100764.16
2023-05-10T10:27:20.939Z,100761.88
2023-05-10T10:29:47.342Z,100768.25
2023-05-10T10:32:13.710Z,100769.00
2023-05-10T10:34:40.026Z,100764.16
2023-05-10T10:37:06.415Z,100761.88
2023-05-10T10:39:32.809Z,100761.00
2023-05-10T10:41:59.146Z,100762.22
2023-05-10T10:44:25.515Z,100769.94
2023-05-10T10:46:51.902Z,100762.78
2023-05-10T10:49:18.225Z,100762.63
2023-05-10T10:51:44.605Z,100763.28
2023-05-10T10:54:10.927Z,100766.13
2023-05-10T10:56:37.292Z,100765.69
2023-05-10T10:59:03.621Z,100764.06
2023-05-10T11:01:29.952Z,100770.41
2023-05-10T11:03:56.433Z,100765.25
2023-05-10T11:06:22.765Z,100764.50
2023-05-10T11:08:49.118Z,100764.97
2023-05-10T11:11:15.496Z,100767.34
2023-05-10T11:13:41.824Z,100770.06
2023-05-10T11:16:08.194Z,100763.06
2023-05-10T11:18:34.579Z,100757.94
2023-05-10T11:21:01.054Z,100761.75
2023-05-10T11:23:27.432Z,100763.59
2023-05-10T11:25:53.791Z,100757.81
2023-05-10T11:28:20.150Z,100746.28
2023-05-10T11:30:46.500Z,100747.97
2023-05-10T11:33:12.887Z,100743.72
2023-05-10T11:35:41.021Z,100749.34
2023-05-10T11:38:08.838Z,100743.25
2023-05-10T11:40:35.207Z,100741.75
2023-05-10T11:43:01.522Z,100737.06
2023-05-10T11:45:28.008Z,100735.69
2023-05-10T11:47:54.362Z,100748.28
2023-05-10T11:50:20.736Z,100736.44
2023-05-10T11:52:47.065Z,100739.19
2023-05-10T11:55:13.424Z,100743.59
2023-05-10T11:57:39.734Z,100734.78
2023-05-10T12:00:06.080Z,100735.69
2023-05-10T12:02:32.508Z,100735.09
2023-05-10T12:04:59.000Z,100725.38
2023-05-10T12:07:25.446Z,100723.69
2023-05-10T12:09:51.831Z,100736.59
2023-05-10T12:12:18.166Z,100726.13
2023-05-10T12:14:44.515Z,100723.09
2023-05-10T12:17:10.844Z,100717.16
2023-05-10T12:19:37.187Z,100715.34
2023-05-10T12:22:03.536Z,100725.06
2023-05-10T12:24:29.871Z,100727.81
2023-05-10T12:27:05.117Z,100723.25
2023-05-10T12:29:31.373Z,100722.03
2023-05-10T12:31:57.730Z,100727.19
2023-05-10T12:34:24.069Z,100721.25
2023-05-10T12:36:50.315Z,100714.16
2023-05-10T12:39:16.581Z,100723.41
2023-05-10T12:41:43.718Z,100715.97
2023-05-10T12:44:10.072Z,100713.69
2023-05-10T12:46:36.357Z,100714.91
2023-05-10T12:49:09.089Z,100715.50
2023-05-10T12:51:35.969Z,100715.06
2023-05-10T12:54:02.262Z,100718.56
2023-05-10T12:56:28.536Z,100720.81
2023-05-10T12:58:54.793Z,100715.34
2023-05-10T13:01:21.075Z,100726.75
2023-05-10T13:03:47.367Z,100717.78
2023-05-10T13:06:13.641Z,100722.63
2023-05-10T13:08:39.902Z,100721.88
2023-05-10T13:11:06.157Z,100721.13
2023-05-10T13:13:32.430Z,100717.78
2023-05-10T13:15:58.706Z,100721.44
2023-05-10T13:18:25.146Z,100703.69
2023-05-10T13:20:51.525Z,100709.72
2023-05-10T13:23:17.786Z,100708.53
2023-05-10T13:25:44.079Z,100710.19
2023-05-10T13:28:10.362Z,100708.97
2023-05-10T13:30:36.686Z,100703.69
2023-05-10T13:33:03.001Z,100713.81
2023-05-10T13:35:29.284Z,100708.06
2023-05-10T13:37:55.582Z,100708.22
2023-05-10T13:40:21.842Z,100700.31
2023-05-10T13:42:48.122Z,100703.38
2023-05-10T13:45:14.614Z,100693.19
2023-05-10T13:47:41.033Z,100705.94
2023-05-10T13:50:07.338Z,100699.88
2023-05-10T13:52:33.632Z,100706.72
2023-05-10T13:54:59.889Z,100706.25
2023-05-10T13:57:26.160Z,100706.25
2023-05-10T13:59:52.425Z,100699.28
2023-05-10T14:02:18.698Z,100697.75
2023-05-10T14:04:44.959Z,100700.16
2023-05-10T14:07:11.227Z,100700.16
2023-05-10T14:09:37.474Z,100707.00
2023-05-10T14:12:03.724Z,100699.25
2023-05-10T14:14:29.997Z,100691.81
2023-05-10T14:16:56.317Z,100689.25
2023-05-10T14:19:22.614Z,100682.41
2023-05-10T14:21:48.860Z,100681.97
2023-05-10T14:24:15.121Z,100684.69
2023-05-10T14:26:42.476Z,100682.84
2023-05-10T14:29:10.032Z,100685.75
2023-05-10T14:31:38.531Z,100687.13
2023-05-10T14:34:04.897Z,100679.84
2023-05-10T14:36:31.176Z,100683.63
2023-05-10T14:38:57.458Z,100687.72
2023-05-10T14:41:23.724Z,100683.78
2023-05-10T14:43:49.990Z,100680.59
2023-05-10T14:46:16.287Z,100686.50
2023-05-10T14:48:42.573Z,100678.44
2023-05-10T14:51:08.831Z,100683.47
2023-05-10T14:53:35.144Z,100684.69
2023-05-10T14:56:01.400Z,100684.69
2023-05-10T14:58:27.686Z,100681.78
2023-05-10T15:00:53.978Z,100685.00
2023-05-10T15:03:20.835Z,100685.44
2023-05-10T15:05:47.575Z,100685.59
2023-05-10T15:08:13.841Z,100683.00
2023-05-10T15:10:40.100Z,100677.09
2023-05-10T15:13:06.371Z,100674.66
2023-05-10T15:15:32.623Z,100667.38
2023-05-10T15:17:58.958Z,100678.44
2023-05-10T15:20:25.287Z,100677.72
2023-05-10T15:22:51.543Z,100679.97
2023-05-10T15:25:18.005Z,100680.75
2023-05-10T15:27:44.521Z,100686.50
2023-05-10T15:30:10.877Z,100687.41
2023-05-10T15:32:37.215Z,100693.94
2023-05-10T15:35:03.491Z,100699.69
2023-05-10T15:37:29.758Z,100703.66
2023-05-10T15:39:57.488Z,100698.97
2023-05-10T15:42:23.829Z,100692.56
2023-05-10T15:44:50.108Z,100696.38
2023-05-10T15:47:16.386Z,100698.19
2023-05-10T15:49:42.727Z,100702.53
2023-05-10T15:52:09.047Z,100706.03
2023-05-10T15:54:35.395Z,100708.22
2023-05-10T15:57:01.775Z,100712.63
2023-05-10T15:59:28.162Z,100712.00
2023-05-10T16:01:54.551Z,100704.66
2023-05-10T16:04:20.914Z,100705.72
2023-05-10T16:06:47.281Z,100706.69
2023-05-10T16:09:13.788Z,100703.94
2023-05-10T16:11:40.155Z,100707.00
2023-05-10T16:14:07.363Z,100702.91
2023-05-10T16:16:33.902Z,100704.41
2023-05-10T16:19:00.390Z,100710.63
2023-05-10T16:21:26.806Z,100715.94
2023-05-10T16:23:53.122Z,100721.88
2023-05-10T16:26:19.467Z,100717.16
2023-05-10T16:28:45.852Z,100721.88
2023-05-10T16:31:12.212Z,100722.03
2023-05-10T16:33:38.649Z,100726.13
2023-05-10T16:36:04.953Z,100727.66
2023-05-10T16:38:31.263Z,100737.34
2023-05-10T16:40:57.572Z,100733.84
2023-05-10T16:43:25.364Z,100736.91
2023-05-10T16:45:52.533Z,100740.56
2023-05-10T16:48:18.919Z,100733.56
2023-05-10T16:50:45.250Z,100728.25
2023-05-10T16:53:11.611Z,100727.34
2023-05-10T16:55:37.943Z,100731.59
2023-05-10T16:58:04.274Z,100726.00
2023-05-10T17:00:30.687Z,100727.47
2023-05-10T17:02:57.170Z,100726.56
2023-05-10T17:05:23.580Z,100719.91
2023-05-10T17:07:49.949Z,100718.22
2023-05-10T17:10:16.356Z,100727.94
2023-05-10T17:12:42.775Z,100726.13
2023-05-10T17:15:09.142Z,100725.06
2023-05-10T17:17:35.552Z,100722.63
2023-05-10T17:20:01.943Z,100724.94
2023-05-10T17:22:28.297Z,100716.72
2023-05-10T17:24:54.613Z,100714.28
2023-05-10T17:27:20.952Z,100711.25
2023-05-10T17:29:47.309Z,100716.56
2023-05-10T17:32:13.694Z,100718.09
2023-05-10T17:34:40.002Z,100720.19
2023-05-10T17:37:06.382Z,100723.06
2023-05-10T17:39:32.743Z,100716.41
2023-05-10T17:41:59.218Z,100720.00
2023-05-10T17:44:25.612Z,100720.78
2023-05-10T17:46:51.969Z,100736.66
2023-05-10T17:49:18.326Z,100736.88
2023-05-10T17:51:44.653Z,100731.72
2023-05-10T17:54:10.959Z,100734.00
2023-05-10T17:56:37.295Z,100741.09
2023-05-10T17:59:03.690Z,100739.94
2023-05-10T18:01:30.083Z,100733.25
2023-05-10T18:03:56.404Z,100736.72
2023-05-10T18:06:22.715Z,100746.44
2023-05-10T18:08:49.079Z,100745.06
2023-05-10T18:11:15.397Z,100748.13
2023-05-10T18:13:41.824Z,100752.06
2023-05-10T18:16:08.138Z,100744.47
2023-05-10T18:18:34.454Z,100756.47
2023-05-10T18:21:00.818Z,100766.03
2023-05-10T18:23:27.140Z,100756.19
2023-05-10T18:25:53.475Z,100755.84
2023-05-10T18:28:19.856Z,100754.34
2023-05-10T18:30:46.237Z,100757.38
2023-05-10T18:33:12.669Z,100758.78
2023-05-10T18:35:39.071Z,100760.41
2023-05-10T18:38:05.468Z,100755.84
2023-05-10T18:40:32.028Z,100754.19
2023-05-10T18:42:58.474Z,100759.66
2023-05-10T18:45:24.828Z,100765.53
2023-05-10T18:47:51.201Z,100776.81
2023-05-10T18:50:17.688Z,100777.28
2023-05-10T18:52:44.066Z,100777.09
2023-05-10T18:55:10.386Z,100784.81
2023-05-10T18:57:36.742Z,100786.06
2023-05-10T19:00:03.074Z,100788.66
2023-05-10T19:02:29.411Z,100790.94
2023-05-10T19:04:55.772Z,100795.50
2023-05-10T19:07:22.253Z,100794.28
2023-05-10T19:09:48.617Z,100798.81
2023-05-10T19:12:14.959Z,100795.16
2023-05-10T19:14:41.305Z,100807.00
2023-05-10T19:17:08.706Z,100808.25
2023-05-10T19:19:37.687Z,100807.16
2023-05-10T19:22:04.568Z,100824.94
2023-05-10T19:24:31.003Z,100817.03
2023-05-10T19:26:57.402Z,100822.97
2023-05-10T19:29:23.777Z,100820.84
2023-05-10T19:31:50.283Z,100833.88
2023-05-10T19:34:16.677Z,100831.59
2023-05-10T19:36:43.120Z,100829.78
2023-05-10T19:39:09.485Z,100836.44
2023-05-10T19:41:35.835Z,100838.72
2023-05-10T19:44:02.203Z,100841.16
2023-05-10T19:46:28.585Z,100841.91
2023-05-10T19:48:55.078Z,100844.34
2023-05-10T19:51:21.462Z,100848.59
2023-05-10T19:53:47.828Z,100859.06
2023-05-10T19:56:14.149Z,100856.31
2023-05-10T19:58:40.483Z,100858.44
2023-05-10T20:01:06.801Z,100857.09
2023-05-10T20:03:33.260Z,100860.72
2023-05-10T20:05:59.631Z,100863.47
2023-05-10T20:08:25.982Z,100867.72
2023-05-10T20:10:52.357Z,100870.75
2023-05-10T20:13:18.733Z,100873.47
2023-05-10T20:15:45.119Z,100868.78
2023-05-10T20:18:11.463Z,100868.78
2023-05-10T20:20:37.790Z,100869.69
2023-05-10T20:23:04.189Z,100873.63
2023-05-10T20:25:30.562Z,100871.50
2023-05-10T20:27:56.912Z,100876.22
2023-05-10T20:30:23.258Z,100870.44
2023-05-10T20:32:49.629Z,100873.47
2023-05-10T20:35:15.971Z,100881.69
2023-05-10T20:37:42.364Z,100877.88
2023-05-10T20:40:08.739Z,100883.34
2023-05-10T20:42:35.057Z,100886.84
2023-05-10T20:45:01.372Z,100890.47
2023-05-10T20:47:27.719Z,100889.72
2023-05-10T20:49:54.116Z,100885.88
2023-05-10T20:52:21.365Z,100896.69
2023-05-10T20:54:48.609Z,100894.09
2023-05-10T20:57:14.967Z,100895.94
2023-05-10T20:59:41.322Z,100897.56
2023-05-10T21:02:07.699Z,100889.06
2023-05-10T21:04:34.054Z,100896.47
2023-05-10T21:07:00.415Z,100899.34
2023-05-10T21:09:26.735Z,100899.34
2023-05-10T21:11:53.099Z,100894.50
2023-05-10T21:14:19.598Z,100898.44
2023-05-10T21:16:45.949Z,100900.41
2023-05-10T21:19:12.271Z,100897.69
2023-05-10T21:21:38.597Z,100904.03
2023-05-10T21:24:04.905Z,100904.81
2023-05-10T21:26:31.237Z,100912.25
2023-05-10T21:28:57.595Z,100913.63
2023-05-10T21:31:23.914Z,100915.50
2023-05-10T21:33:50.313Z,100912.56
2023-05-10T21:36:16.683Z,100907.84
2023-05-10T21:38:43.048Z,100912.88
2023-05-10T21:41:09.371Z,100910.13
2023-05-10T21:43:35.684Z,100912.09
2023-05-10T21:46:02.039Z,100908.59
2023-05-10T21:48:28.386Z,100908.75
2023-05-10T21:50:54.700Z,100916.81
2023-05-10T21:53:21.138Z,100912.84
2023-05-10T21:55:47.441Z,100916.50
2023-05-10T21:58:13.788Z,100914.97
2023-05-10T22:00:40.114Z,100919.22
2023-05-10T22:03:06.605Z,100921.97
2023-05-10T22:05:33.032Z,100915.31
2023-05-10T22:07:59.408Z,100910.28
2023-05-10T22:10:25.757Z,100916.16
2023-05-10T22:12:52.133Z,100914.97
2023-05-10T22:15:18.501Z,100909.22
2023-05-10T22:17:44.820Z,100908.31
2023-05-10T22:20:11.199Z,100913.31
2023-05-10T22:22:37.577Z,100912.06
2023-05-10T22:25:03.950Z,100913.44
2023-05-10T22:27:30.320Z,100907.25
2023-05-10T22:29:56.633Z,100911.94
2023-05-10T22:32:23.005Z,100908.88
2023-05-10T22:34:49.356Z,100908.44
2023-05-10T22:37:15.662Z,100904.03
2023-05-10T22:39:42.039Z,100904.03
2023-05-10T22:42:08.337Z,100917.84
2023-05-10T22:44:34.684Z,100911.94
2023-05-10T22:47:01.075Z,100907.69
2023-05-10T22:49:27.397Z,100909.22
2023-05-10T22:51:53.749Z,100908.31
2023-05-10T22:54:20.084Z,100908.88
2023-05-10T22:56:46.460Z,100910.84
2023-05-10T22:59:12.844Z,100916.31
2023-05-10T23:01:39.177Z,100906.59
2023-05-10T23:04:05.604Z,100907.38
2023-05-10T23:06:31.984Z,100918.31
2023-05-10T23:08:58.350Z,100910.53
2023-05-10T23:11:24.672Z,100911.31
2023-05-10T23:13:51.020Z,100910.53
2023-05-10T23:16:17.359Z,100910.41
2023-05-10T23:18:43.752Z,100903.41
2023-05-10T23:21:10.149Z,100905.38
2023-05-10T23:23:36.533Z,100907.69
2023-05-10T23:26:02.848Z,100906.47
2023-05-10T23:28:29.195Z,100908.09
2023-05-10T23:30:55.559Z,100909.34
2023-05-10T23:33:21.927Z,100905.84
2023-05-10T23:35:48.298Z,100906.28
2023-05-10T23:38:14.608Z,100901.44
2023-05-10T23:40:40.947Z,100908.09
2023-05-10T23:43:07.306Z,100905.38
2023-05-10T23:45:33.664Z,100906.78
2023-05-10T23:48:00.139Z,100908.44
2023-05-10T23:50:26.531Z,100908.44
2023-05-10T23:52:52.905Z,100908.44
2023-05-10T23:55:19.228Z,100911.44
2023-05-10T23:57:45.596Z,100907.50
